sensor_id;sensor_type;location;lat;lon;timestamp;temperature;humidity
50907;DHT22;36882;27.680;85.304;2022-07-29T00:02:05;24.70;99.90
50907;DHT22;36882;27.680;85.304;2022-07-29T00:04:36;24.70;99.90
50907;DHT22;36882;27.680;85.304;2022-07-29T00:07:06;24.60;99.90
50907;DHT22;36882;27.680;85.304;2022-07-29T00:09:38;24.70;99.90
50907;DHT22;36882;27.680;85.304;2022-07-29T00:12:21;24.70;99.90
50907;DHT22;36882;27.680;85.304;2022-07-29T00:14:55;24.70;99.90
50907;DHT22;36882;27.680;85.304;2022-07-29T00:17:26;24.70;99.90
50907;DHT22;36882;27.680;85.304;2022-07-29T00:19:56;24.70;99.90
50907;DHT22;36882;27.680;85.304;2022-07-29T00:22:26;24.70;99.90
50907;DHT22;36882;27.680;85.304;2022-07-29T00:24:57;24.70;99.90
50907;DHT22;36882;27.680;85.304;2022-07-29T00:27:27;24.70;99.90
50907;DHT22;36882;27.680;85.304;2022-07-29T00:29:57;24.70;99.90
50907;DHT22;36882;27.680;85.304;2022-07-29T00:32:28;24.70;99.90
50907;DHT22;36882;27.680;85.304;2022-07-29T00:34:58;24.80;99.90
50907;DHT22;36882;27.680;85.304;2022-07-29T00:37:46;24.80;99.90
50907;DHT22;36882;27.680;85.304;2022-07-29T00:40:17;24.80;99.90
50907;DHT22;36882;27.680;85.304;2022-07-29T00:42:51;24.90;99.90
50907;DHT22;36882;27.680;85.304;2022-07-29T00:45:21;24.90;99.90
50907;DHT22;36882;27.680;85.304;2022-07-29T00:47:52;24.90;99.90
50907;DHT22;36882;27.680;85.304;2022-07-29T00:50:23;25.00;99.90
50907;DHT22;36882;27.680;85.304;2022-07-29T00:52:54;25.00;99.90
50907;DHT22;36882;27.680;85.304;2022-07-29T00:55:24;25.10;99.90
50907;DHT22;36882;27.680;85.304;2022-07-29T00:57:55;25.10;99.90
50907;DHT22;36882;27.680;85.304;2022-07-29T01:00:28;25.10;99.90
50907;DHT22;36882;27.680;85.304;2022-07-29T01:02:58;25.10;99.90
50907;DHT22;36882;27.680;85.304;2022-07-29T01:05:31;25.10;99.90
50907;DHT22;36882;27.680;85.304;2022-07-29T01:08:18;25.20;99.90
50907;DHT22;36882;27.680;85.304;2022-07-29T01:10:49;25.20;99.90
50907;DHT22;36882;27.680;85.304;2022-07-29T01:13:21;25.20;99.90
50907;DHT22;36882;27.680;85.304;2022-07-29T01:16:06;25.20;99.90
50907;DHT22;36882;27.680;85.304;2022-07-29T01:18:41;25.30;99.90
50907;DHT22;36882;27.680;85.304;2022-07-29T01:24:39;25.30;99.90
50907;DHT22;36882;27.680;85.304;2022-07-29T01:27:42;25.30;99.90
50907;DHT22;36882;27.680;85.304;2022-07-29T01:30:13;25.40;99.90
50907;DHT22;36882;27.680;85.304;2022-07-29T01:32:48;25.50;99.90
50907;DHT22;36882;27.680;85.304;2022-07-29T01:35:26;25.50;99.90
50907;DHT22;36882;27.680;85.304;2022-07-29T01:38:17;25.60;99.90
50907;DHT22;36882;27.680;85.304;2022-07-29T01:40:53;25.70;99.90
50907;DHT22;36882;27.680;85.304;2022-07-29T01:43:34;25.70;99.90
50907;DHT22;36882;27.680;85.304;2022-07-29T01:46:11;25.80;99.90
50907;DHT22;36882;27.680;85.304;2022-07-29T01:48:49;25.80;99.50
50907;DHT22;36882;27.680;85.304;2022-07-29T01:51:35;25.80;99.50
50907;DHT22;36882;27.680;85.304;2022-07-29T01:54:18;25.90;99.50
50907;DHT22;36882;27.680;85.304;2022-07-29T01:56:53;25.90;99.40
50907;DHT22;36882;27.680;85.304;2022-07-29T01:59:24;26.00;99.60
50907;DHT22;36882;27.680;85.304;2022-07-29T02:02:00;26.10;99.80
50907;DHT22;36882;27.680;85.304;2022-07-29T02:04:32;26.10;99.30
50907;DHT22;36882;27.680;85.304;2022-07-29T02:07:05;26.20;99.50
50907;DHT22;36882;27.680;85.304;2022-07-29T02:09:41;26.30;99.40
50907;DHT22;36882;27.680;85.304;2022-07-29T02:12:12;26.30;99.50
50907;DHT22;36882;27.680;85.304;2022-07-29T02:14:47;26.40;99.30
50907;DHT22;36882;27.680;85.304;2022-07-29T02:17:32;26.50;98.80
50907;DHT22;36882;27.680;85.304;2022-07-29T02:20:07;26.60;98.90
50907;DHT22;36882;27.680;85.304;2022-07-29T02:22:39;26.60;98.40
50907;DHT22;36882;27.680;85.304;2022-07-29T02:25:11;26.50;98.30
50907;DHT22;36882;27.680;85.304;2022-07-29T02:27:44;26.50;98.70
50907;DHT22;36882;27.680;85.304;2022-07-29T02:30:17;26.50;98.40
50907;DHT22;36882;27.680;85.304;2022-07-29T02:32:49;26.60;98.40
50907;DHT22;36882;27.680;85.304;2022-07-29T02:35:21;26.60;98.40
50907;DHT22;36882;27.680;85.304;2022-07-29T02:37:53;26.60;98.60
50907;DHT22;36882;27.680;85.304;2022-07-29T02:40:42;26.70;98.80
50907;DHT22;36882;27.680;85.304;2022-07-29T02:43:14;26.70;98.50
50907;DHT22;36882;27.680;85.304;2022-07-29T02:45:45;26.80;98.70
50907;DHT22;36882;27.680;85.304;2022-07-29T02:48:22;26.90;98.20
50907;DHT22;36882;27.680;85.304;2022-07-29T02:51:05;27.00;98.00
50907;DHT22;36882;27.680;85.304;2022-07-29T02:53:40;27.10;97.80
50907;DHT22;36882;27.680;85.304;2022-07-29T02:56:14;27.10;98.40
50907;DHT22;36882;27.680;85.304;2022-07-29T02:58:53;27.10;98.40
50907;DHT22;36882;27.680;85.304;2022-07-29T03:01:25;27.10;99.00
50907;DHT22;36882;27.680;85.304;2022-07-29T03:04:01;27.20;98.20
50907;DHT22;36882;27.680;85.304;2022-07-29T03:06:33;27.20;98.00
50907;DHT22;36882;27.680;85.304;2022-07-29T03:09:07;27.30;98.00
50907;DHT22;36882;27.680;85.304;2022-07-29T03:11:41;27.40;98.10
50907;DHT22;36882;27.680;85.304;2022-07-29T03:14:19;27.50;98.10
50907;DHT22;36882;27.680;85.304;2022-07-29T03:16:50;27.70;97.80
50907;DHT22;36882;27.680;85.304;2022-07-29T03:19:21;27.80;97.50
50907;DHT22;36882;27.680;85.304;2022-07-29T03:21:52;28.00;97.10
50907;DHT22;36882;27.680;85.304;2022-07-29T03:24:30;28.10;96.50
50907;DHT22;36882;27.680;85.304;2022-07-29T03:27:02;28.20;96.70
50907;DHT22;36882;27.680;85.304;2022-07-29T03:29:33;28.30;96.50
50907;DHT22;36882;27.680;85.304;2022-07-29T03:32:05;28.40;96.00
50907;DHT22;36882;27.680;85.304;2022-07-29T03:34:37;28.50;95.40
50907;DHT22;36882;27.680;85.304;2022-07-29T03:37:07;28.50;95.70
50907;DHT22;36882;27.680;85.304;2022-07-29T03:39:40;28.40;95.00
50907;DHT22;36882;27.680;85.304;2022-07-29T03:42:14;28.40;95.40
50907;DHT22;36882;27.680;85.304;2022-07-29T03:44:48;28.50;95.30
50907;DHT22;36882;27.680;85.304;2022-07-29T03:47:22;28.60;95.30
50907;DHT22;36882;27.680;85.304;2022-07-29T03:50:15;28.70;95.40
50907;DHT22;36882;27.680;85.304;2022-07-29T03:52:47;28.70;95.40
50907;DHT22;36882;27.680;85.304;2022-07-29T03:55:20;28.80;94.50
50907;DHT22;36882;27.680;85.304;2022-07-29T03:57:51;28.90;94.80
50907;DHT22;36882;27.680;85.304;2022-07-29T04:00:22;29.00;95.00
50907;DHT22;36882;27.680;85.304;2022-07-29T04:02:53;29.00;93.70
50907;DHT22;36882;27.680;85.304;2022-07-29T04:05:24;29.00;94.30
50907;DHT22;36882;27.680;85.304;2022-07-29T04:07:54;29.00;93.90
50907;DHT22;36882;27.680;85.304;2022-07-29T04:10:25;29.10;93.90
50907;DHT22;36882;27.680;85.304;2022-07-29T04:12:59;29.10;93.60
50907;DHT22;36882;27.680;85.304;2022-07-29T04:15:29;29.20;93.90
50907;DHT22;36882;27.680;85.304;2022-07-29T04:18:00;29.30;93.80
50907;DHT22;36882;27.680;85.304;2022-07-29T04:20:30;29.40;93.90
50907;DHT22;36882;27.680;85.304;2022-07-29T04:23:00;29.50;94.90
50907;DHT22;36882;27.680;85.304;2022-07-29T04:25:31;29.60;94.40
50907;DHT22;36882;27.680;85.304;2022-07-29T04:28:02;29.70;94.00
50907;DHT22;36882;27.680;85.304;2022-07-29T04:30:33;29.80;93.70
50907;DHT22;36882;27.680;85.304;2022-07-29T04:33:05;29.90;92.70
50907;DHT22;36882;27.680;85.304;2022-07-29T04:35:37;29.90;92.50
50907;DHT22;36882;27.680;85.304;2022-07-29T04:38:17;30.00;92.70
50907;DHT22;36882;27.680;85.304;2022-07-29T04:40:47;30.00;92.20
50907;DHT22;36882;27.680;85.304;2022-07-29T04:43:18;30.20;92.40
50907;DHT22;36882;27.680;85.304;2022-07-29T04:45:50;30.30;91.90
50907;DHT22;36882;27.680;85.304;2022-07-29T04:48:20;30.40;92.90
50907;DHT22;36882;27.680;85.304;2022-07-29T04:50:56;30.50;91.60
50907;DHT22;36882;27.680;85.304;2022-07-29T04:53:26;30.60;91.60
50907;DHT22;36882;27.680;85.304;2022-07-29T04:55:57;30.70;90.60
50907;DHT22;36882;27.680;85.304;2022-07-29T04:58:27;30.70;90.30
50907;DHT22;36882;27.680;85.304;2022-07-29T05:00:58;30.70;90.00
50907;DHT22;36882;27.680;85.304;2022-07-29T05:03:28;30.70;86.80
50907;DHT22;36882;27.680;85.304;2022-07-29T05:05:58;30.70;88.20
50907;DHT22;36882;27.680;85.304;2022-07-29T05:08:29;30.80;89.70
50907;DHT22;36882;27.680;85.304;2022-07-29T05:10:59;30.90;89.10
50907;DHT22;36882;27.680;85.304;2022-07-29T05:13:48;30.90;88.10
50907;DHT22;36882;27.680;85.304;2022-07-29T05:16:19;31.00;85.20
50907;DHT22;36882;27.680;85.304;2022-07-29T05:18:53;31.00;87.50
50907;DHT22;36882;27.680;85.304;2022-07-29T05:21:24;31.00;88.90
50907;DHT22;36882;27.680;85.304;2022-07-29T05:23:54;31.20;88.50
50907;DHT22;36882;27.680;85.304;2022-07-29T05:26:25;31.20;88.70
50907;DHT22;36882;27.680;85.304;2022-07-29T05:28:55;31.20;87.80
50907;DHT22;36882;27.680;85.304;2022-07-29T05:31:26;31.30;87.40
50907;DHT22;36882;27.680;85.304;2022-07-29T05:33:57;31.40;86.90
50907;DHT22;36882;27.680;85.304;2022-07-29T05:36:27;31.60;86.80
50907;DHT22;36882;27.680;85.304;2022-07-29T05:38:57;31.60;87.10
50907;DHT22;36882;27.680;85.304;2022-07-29T05:41:31;31.60;87.30
50907;DHT22;36882;27.680;85.304;2022-07-29T05:44:01;31.70;85.40
50907;DHT22;36882;27.680;85.304;2022-07-29T05:46:31;31.70;87.30
50907;DHT22;36882;27.680;85.304;2022-07-29T05:49:02;31.70;88.50
50907;DHT22;36882;27.680;85.304;2022-07-29T05:51:34;31.70;88.10
50907;DHT22;36882;27.680;85.304;2022-07-29T05:54:05;31.70;87.40
50907;DHT22;36882;27.680;85.304;2022-07-29T05:56:36;31.70;87.40
50907;DHT22;36882;27.680;85.304;2022-07-29T05:59:06;31.80;88.00
50907;DHT22;36882;27.680;85.304;2022-07-29T06:01:44;31.70;87.30
50907;DHT22;36882;27.680;85.304;2022-07-29T06:04:15;31.80;86.60
50907;DHT22;36882;27.680;85.304;2022-07-29T06:06:46;31.70;86.10
50907;DHT22;36882;27.680;85.304;2022-07-29T06:09:19;31.80;85.00
50907;DHT22;36882;27.680;85.304;2022-07-29T06:11:50;31.80;86.40
50907;DHT22;36882;27.680;85.304;2022-07-29T06:14:21;31.80;86.40
50907;DHT22;36882;27.680;85.304;2022-07-29T06:16:51;31.70;88.50
50907;DHT22;36882;27.680;85.304;2022-07-29T06:19:22;31.70;86.50
50907;DHT22;36882;27.680;85.304;2022-07-29T06:21:53;31.80;88.50
50907;DHT22;36882;27.680;85.304;2022-07-29T06:24:24;31.70;90.10
50907;DHT22;36882;27.680;85.304;2022-07-29T06:26:55;31.60;90.30
50907;DHT22;36882;27.680;85.304;2022-07-29T06:29:25;31.70;90.70
50907;DHT22;36882;27.680;85.304;2022-07-29T06:31:56;31.80;91.00
50907;DHT22;36882;27.680;85.304;2022-07-29T06:34:26;31.80;90.40
50907;DHT22;36882;27.680;85.304;2022-07-29T06:36:57;31.80;90.60
50907;DHT22;36882;27.680;85.304;2022-07-29T06:39:28;31.50;90.20
50907;DHT22;36882;27.680;85.304;2022-07-29T06:41:58;31.20;90.40
50907;DHT22;36882;27.680;85.304;2022-07-29T06:44:29;31.00;91.10
50907;DHT22;36882;27.680;85.304;2022-07-29T06:47:01;30.90;91.00
50907;DHT22;36882;27.680;85.304;2022-07-29T06:49:33;30.80;90.20
50907;DHT22;36882;27.680;85.304;2022-07-29T06:52:03;30.70;90.20
50907;DHT22;36882;27.680;85.304;2022-07-29T06:54:37;30.40;90.60
50907;DHT22;36882;27.680;85.304;2022-07-29T06:57:08;30.40;92.10
50907;DHT22;36882;27.680;85.304;2022-07-29T06:59:38;30.40;91.90
50907;DHT22;36882;27.680;85.304;2022-07-29T07:02:09;30.60;91.40
50907;DHT22;36882;27.680;85.304;2022-07-29T07:04:39;30.80;91.00
50907;DHT22;36882;27.680;85.304;2022-07-29T07:07:09;31.00;91.20
50907;DHT22;36882;27.680;85.304;2022-07-29T07:09:40;31.20;90.90
50907;DHT22;36882;27.680;85.304;2022-07-29T07:12:10;31.20;91.10
50907;DHT22;36882;27.680;85.304;2022-07-29T07:14:41;31.30;90.60
50907;DHT22;36882;27.680;85.304;2022-07-29T07:17:12;31.30;90.10
50907;DHT22;36882;27.680;85.304;2022-07-29T07:19:42;31.30;90.50
50907;DHT22;36882;27.680;85.304;2022-07-29T07:22:12;31.30;90.50
50907;DHT22;36882;27.680;85.304;2022-07-29T07:24:43;31.30;90.20
50907;DHT22;36882;27.680;85.304;2022-07-29T07:27:13;31.40;90.10
50907;DHT22;36882;27.680;85.304;2022-07-29T07:29:44;31.40;90.00
50907;DHT22;36882;27.680;85.304;2022-07-29T07:32:14;31.40;90.00
50907;DHT22;36882;27.680;85.304;2022-07-29T07:34:46;31.50;90.30
50907;DHT22;36882;27.680;85.304;2022-07-29T07:37:16;31.50;90.80
50907;DHT22;36882;27.680;85.304;2022-07-29T07:39:48;31.40;90.20
50907;DHT22;36882;27.680;85.304;2022-07-29T07:42:19;31.50;90.10
50907;DHT22;36882;27.680;85.304;2022-07-29T07:44:50;31.60;89.90
50907;DHT22;36882;27.680;85.304;2022-07-29T07:47:39;31.60;90.10
50907;DHT22;36882;27.680;85.304;2022-07-29T07:50:11;31.50;90.40
50907;DHT22;36882;27.680;85.304;2022-07-29T07:52:49;31.60;90.10
50907;DHT22;36882;27.680;85.304;2022-07-29T07:55:20;31.90;90.50
50907;DHT22;36882;27.680;85.304;2022-07-29T07:57:51;32.00;88.00
50907;DHT22;36882;27.680;85.304;2022-07-29T08:00:22;31.80;90.30
50907;DHT22;36882;27.680;85.304;2022-07-29T08:02:52;31.80;90.40
50907;DHT22;36882;27.680;85.304;2022-07-29T08:05:23;31.70;90.10
50907;DHT22;36882;27.680;85.304;2022-07-29T08:07:53;31.60;90.30
50907;DHT22;36882;27.680;85.304;2022-07-29T08:10:24;31.60;90.10
50907;DHT22;36882;27.680;85.304;2022-07-29T08:13:09;31.40;90.50
50907;DHT22;36882;27.680;85.304;2022-07-29T08:15:41;31.30;90.50
50907;DHT22;36882;27.680;85.304;2022-07-29T08:18:13;31.30;90.60
50907;DHT22;36882;27.680;85.304;2022-07-29T08:20:44;31.20;90.90
50907;DHT22;36882;27.680;85.304;2022-07-29T08:23:14;31.30;91.00
50907;DHT22;36882;27.680;85.304;2022-07-29T08:25:45;31.30;90.80
50907;DHT22;36882;27.680;85.304;2022-07-29T08:28:17;31.20;91.00
50907;DHT22;36882;27.680;85.304;2022-07-29T08:30:52;31.20;91.60
50907;DHT22;36882;27.680;85.304;2022-07-29T08:33:23;31.20;91.60
50907;DHT22;36882;27.680;85.304;2022-07-29T08:35:53;31.20;91.10
50907;DHT22;36882;27.680;85.304;2022-07-29T08:38:23;31.10;91.50
50907;DHT22;36882;27.680;85.304;2022-07-29T08:40:55;31.00;91.80
50907;DHT22;36882;27.680;85.304;2022-07-29T08:43:27;31.00;91.90
50907;DHT22;36882;27.680;85.304;2022-07-29T08:45:57;30.90;91.60
50907;DHT22;36882;27.680;85.304;2022-07-29T08:48:28;30.90;91.70
50907;DHT22;36882;27.680;85.304;2022-07-29T08:51:00;30.90;92.00
50907;DHT22;36882;27.680;85.304;2022-07-29T08:53:32;30.70;91.90
50907;DHT22;36882;27.680;85.304;2022-07-29T08:56:03;30.50;92.10
50907;DHT22;36882;27.680;85.304;2022-07-29T08:58:34;30.40;92.40
50907;DHT22;36882;27.680;85.304;2022-07-29T09:01:07;30.20;92.10
50907;DHT22;36882;27.680;85.304;2022-07-29T09:03:41;30.20;92.30
50907;DHT22;36882;27.680;85.304;2022-07-29T09:06:15;30.10;92.00
50907;DHT22;36882;27.680;85.304;2022-07-29T09:08:47;29.90;92.10
50907;DHT22;36882;27.680;85.304;2022-07-29T09:11:18;29.60;92.10
50907;DHT22;36882;27.680;85.304;2022-07-29T09:13:48;29.30;92.00
50907;DHT22;36882;27.680;85.304;2022-07-29T09:16:19;29.20;92.50
50907;DHT22;36882;27.680;85.304;2022-07-29T09:19:27;29.10;92.80
50907;DHT22;36882;27.680;85.304;2022-07-29T09:21:59;28.90;92.50
50907;DHT22;36882;27.680;85.304;2022-07-29T09:24:40;29.00;93.10
50907;DHT22;36882;27.680;85.304;2022-07-29T09:27:23;28.80;92.10
50907;DHT22;36882;27.680;85.304;2022-07-29T09:29:57;28.80;93.30
50907;DHT22;36882;27.680;85.304;2022-07-29T09:32:28;28.80;93.80
50907;DHT22;36882;27.680;85.304;2022-07-29T09:35:16;28.80;93.60
50907;DHT22;36882;27.680;85.304;2022-07-29T09:37:47;28.60;93.70
50907;DHT22;36882;27.680;85.304;2022-07-29T09:40:22;28.30;94.40
50907;DHT22;36882;27.680;85.304;2022-07-29T09:42:53;27.90;95.00
50907;DHT22;36882;27.680;85.304;2022-07-29T09:45:31;27.40;96.10
50907;DHT22;36882;27.680;85.304;2022-07-29T09:48:21;27.30;96.30
50907;DHT22;36882;27.680;85.304;2022-07-29T09:50:52;27.10;96.80
50907;DHT22;36882;27.680;85.304;2022-07-29T09:53:38;26.80;97.10
50907;DHT22;36882;27.680;85.304;2022-07-29T09:56:09;26.50;97.60
50907;DHT22;36882;27.680;85.304;2022-07-29T09:58:40;26.50;97.90
50907;DHT22;36882;27.680;85.304;2022-07-29T10:01:10;26.80;97.40
50907;DHT22;36882;27.680;85.304;2022-07-29T10:03:57;26.80;97.40
50907;DHT22;36882;27.680;85.304;2022-07-29T10:06:27;27.00;97.50
50907;DHT22;36882;27.680;85.304;2022-07-29T10:09:10;27.10;97.20
50907;DHT22;36882;27.680;85.304;2022-07-29T10:11:41;27.40;96.80
50907;DHT22;36882;27.680;85.304;2022-07-29T10:14:16;27.40;97.00
50907;DHT22;36882;27.680;85.304;2022-07-29T10:16:47;27.50;96.40
50907;DHT22;36882;27.680;85.304;2022-07-29T10:19:18;27.60;96.70
50907;DHT22;36882;27.680;85.304;2022-07-29T10:21:49;27.80;96.60
50907;DHT22;36882;27.680;85.304;2022-07-29T10:24:27;27.90;96.10
50907;DHT22;36882;27.680;85.304;2022-07-29T10:27:00;28.00;95.40
50907;DHT22;36882;27.680;85.304;2022-07-29T10:29:31;28.10;95.00
50907;DHT22;36882;27.680;85.304;2022-07-29T10:32:16;28.20;94.90
50907;DHT22;36882;27.680;85.304;2022-07-29T10:38:02;27.80;95.50
50907;DHT22;36882;27.680;85.304;2022-07-29T10:40:58;27.60;96.20
50907;DHT22;36882;27.680;85.304;2022-07-29T10:47:29;27.50;96.40
50907;DHT22;36882;27.680;85.304;2022-07-29T10:50:06;27.50;96.00
50907;DHT22;36882;27.680;85.304;2022-07-29T10:52:55;27.60;95.80
50907;DHT22;36882;27.680;85.304;2022-07-29T10:55:37;27.60;96.30
50907;DHT22;36882;27.680;85.304;2022-07-29T10:58:20;27.60;95.90
50907;DHT22;36882;27.680;85.304;2022-07-29T11:00:56;27.50;97.00
50907;DHT22;36882;27.680;85.304;2022-07-29T11:03:47;27.50;97.50
50907;DHT22;36882;27.680;85.304;2022-07-29T11:06:23;27.40;97.50
50907;DHT22;36882;27.680;85.304;2022-07-29T11:09:16;27.40;97.50
50907;DHT22;36882;27.680;85.304;2022-07-29T11:15:21;27.40;97.30
50907;DHT22;36882;27.680;85.304;2022-07-29T11:18:09;27.30;97.60
50907;DHT22;36882;27.680;85.304;2022-07-29T11:20:51;27.30;97.80
50907;DHT22;36882;27.680;85.304;2022-07-29T11:23:33;27.30;97.30
50907;DHT22;36882;27.680;85.304;2022-07-29T11:26:20;27.30;97.80
50907;DHT22;36882;27.680;85.304;2022-07-29T11:29:16;27.20;97.50
50907;DHT22;36882;27.680;85.304;2022-07-29T11:31:52;27.10;97.80
50907;DHT22;36882;27.680;85.304;2022-07-29T11:34:32;27.10;98.00
50907;DHT22;36882;27.680;85.304;2022-07-29T11:37:22;27.10;97.60
50907;DHT22;36882;27.680;85.304;2022-07-29T11:40:13;27.00;97.60
50907;DHT22;36882;27.680;85.304;2022-07-29T11:42:45;27.00;97.30
50907;DHT22;36882;27.680;85.304;2022-07-29T11:45:24;27.00;97.80
50907;DHT22;36882;27.680;85.304;2022-07-29T11:48:16;27.00;97.30
50907;DHT22;36882;27.680;85.304;2022-07-29T11:51:00;27.00;97.80
50907;DHT22;36882;27.680;85.304;2022-07-29T11:53:33;27.00;98.20
50907;DHT22;36882;27.680;85.304;2022-07-29T11:56:08;27.00;98.10
50907;DHT22;36882;27.680;85.304;2022-07-29T11:58:43;27.00;98.00
50907;DHT22;36882;27.680;85.304;2022-07-29T12:01:18;27.10;98.10
50907;DHT22;36882;27.680;85.304;2022-07-29T12:03:48;27.10;98.00
50907;DHT22;36882;27.680;85.304;2022-07-29T12:06:35;27.20;97.90
50907;DHT22;36882;27.680;85.304;2022-07-29T12:09:09;27.30;98.00
50907;DHT22;36882;27.680;85.304;2022-07-29T12:11:43;27.30;97.40
50907;DHT22;36882;27.680;85.304;2022-07-29T12:14:31;27.20;97.50
50907;DHT22;36882;27.680;85.304;2022-07-29T12:17:02;27.30;97.80
50907;DHT22;36882;27.680;85.304;2022-07-29T12:19:42;27.30;97.80
50907;DHT22;36882;27.680;85.304;2022-07-29T12:22:37;27.30;97.90
50907;DHT22;36882;27.680;85.304;2022-07-29T12:25:12;27.30;98.00
50907;DHT22;36882;27.680;85.304;2022-07-29T12:28:02;27.30;97.70
50907;DHT22;36882;27.680;85.304;2022-07-29T12:30:44;27.40;97.70
50907;DHT22;36882;27.680;85.304;2022-07-29T12:33:22;27.30;97.90
50907;DHT22;36882;27.680;85.304;2022-07-29T12:38:40;27.30;97.60
50907;DHT22;36882;27.680;85.304;2022-07-29T12:41:11;27.20;97.50
50907;DHT22;36882;27.680;85.304;2022-07-29T12:43:54;27.20;97.10
50907;DHT22;36882;27.680;85.304;2022-07-29T12:46:24;27.20;97.00
50907;DHT22;36882;27.680;85.304;2022-07-29T12:48:55;27.20;97.20
50907;DHT22;36882;27.680;85.304;2022-07-29T12:51:34;27.20;97.00
50907;DHT22;36882;27.680;85.304;2022-07-29T12:54:08;27.10;97.40
50907;DHT22;36882;27.680;85.304;2022-07-29T12:56:41;27.10;97.80
50907;DHT22;36882;27.680;85.304;2022-07-29T12:59:21;27.10;97.70
50907;DHT22;36882;27.680;85.304;2022-07-29T13:01:53;27.10;97.50
50907;DHT22;36882;27.680;85.304;2022-07-29T13:04:32;27.10;97.20
50907;DHT22;36882;27.680;85.304;2022-07-29T13:07:07;27.20;97.60
50907;DHT22;36882;27.680;85.304;2022-07-29T13:09:43;27.30;96.70
50907;DHT22;36882;27.680;85.304;2022-07-29T13:12:15;27.20;96.60
50907;DHT22;36882;27.680;85.304;2022-07-29T13:14:48;27.10;96.60
50907;DHT22;36882;27.680;85.304;2022-07-29T13:17:22;27.10;97.00
50907;DHT22;36882;27.680;85.304;2022-07-29T13:20:08;27.10;97.20
50907;DHT22;36882;27.680;85.304;2022-07-29T13:22:42;27.00;97.50
50907;DHT22;36882;27.680;85.304;2022-07-29T13:25:13;27.10;97.80
50907;DHT22;36882;27.680;85.304;2022-07-29T13:27:43;27.10;97.40
50907;DHT22;36882;27.680;85.304;2022-07-29T13:30:15;27.10;97.30
50907;DHT22;36882;27.680;85.304;2022-07-29T13:32:45;27.10;97.30
50907;DHT22;36882;27.680;85.304;2022-07-29T13:35:17;27.10;97.20
50907;DHT22;36882;27.680;85.304;2022-07-29T13:37:47;27.10;96.90
50907;DHT22;36882;27.680;85.304;2022-07-29T13:40:19;27.00;96.80
50907;DHT22;36882;27.680;85.304;2022-07-29T13:42:50;27.00;96.90
50907;DHT22;36882;27.680;85.304;2022-07-29T13:45:20;27.00;97.00
50907;DHT22;36882;27.680;85.304;2022-07-29T13:47:55;26.90;96.80
50907;DHT22;36882;27.680;85.304;2022-07-29T13:50:25;26.80;97.10
50907;DHT22;36882;27.680;85.304;2022-07-29T13:52:56;26.70;97.30
50907;DHT22;36882;27.680;85.304;2022-07-29T13:55:27;26.70;97.20
50907;DHT22;36882;27.680;85.304;2022-07-29T13:58:00;26.70;97.10
50907;DHT22;36882;27.680;85.304;2022-07-29T14:00:32;26.70;97.00
50907;DHT22;36882;27.680;85.304;2022-07-29T14:03:03;26.60;96.70
50907;DHT22;36882;27.680;85.304;2022-07-29T14:05:34;26.60;96.90
50907;DHT22;36882;27.680;85.304;2022-07-29T14:08:05;26.70;96.90
50907;DHT22;36882;27.680;85.304;2022-07-29T14:10:35;26.70;96.90
50907;DHT22;36882;27.680;85.304;2022-07-29T14:13:06;26.70;96.70
50907;DHT22;36882;27.680;85.304;2022-07-29T14:15:52;26.60;96.90
50907;DHT22;36882;27.680;85.304;2022-07-29T14:18:22;26.60;97.20
50907;DHT22;36882;27.680;85.304;2022-07-29T14:20:53;26.60;97.10
50907;DHT22;36882;27.680;85.304;2022-07-29T14:23:23;26.40;97.20
50907;DHT22;36882;27.680;85.304;2022-07-29T14:25:53;26.40;97.30
50907;DHT22;36882;27.680;85.304;2022-07-29T14:28:24;26.40;97.60
50907;DHT22;36882;27.680;85.304;2022-07-29T14:30:54;26.40;97.50
50907;DHT22;36882;27.680;85.304;2022-07-29T14:33:25;26.30;97.60
50907;DHT22;36882;27.680;85.304;2022-07-29T14:35:55;26.40;97.80
50907;DHT22;36882;27.680;85.304;2022-07-29T14:38:27;26.40;97.50
50907;DHT22;36882;27.680;85.304;2022-07-29T14:41:00;26.50;97.40
50907;DHT22;36882;27.680;85.304;2022-07-29T14:43:31;26.50;97.40
50907;DHT22;36882;27.680;85.304;2022-07-29T14:46:02;26.50;97.30
50907;DHT22;36882;27.680;85.304;2022-07-29T14:48:35;26.50;97.70
50907;DHT22;36882;27.680;85.304;2022-07-29T14:51:05;26.50;97.90
50907;DHT22;36882;27.680;85.304;2022-07-29T14:53:35;26.40;97.80
50907;DHT22;36882;27.680;85.304;2022-07-29T14:56:06;26.30;97.60
50907;DHT22;36882;27.680;85.304;2022-07-29T14:58:57;26.30;97.50
50907;DHT22;36882;27.680;85.304;2022-07-29T15:01:28;26.20;97.50
50907;DHT22;36882;27.680;85.304;2022-07-29T15:03:58;26.30;97.50
50907;DHT22;36882;27.680;85.304;2022-07-29T15:06:29;26.30;97.40
50907;DHT22;36882;27.680;85.304;2022-07-29T15:08:59;26.30;97.30
50907;DHT22;36882;27.680;85.304;2022-07-29T15:11:34;26.30;97.10
50907;DHT22;36882;27.680;85.304;2022-07-29T15:14:06;26.40;97.30
50907;DHT22;36882;27.680;85.304;2022-07-29T15:16:38;26.30;97.00
50907;DHT22;36882;27.680;85.304;2022-07-29T15:19:14;26.30;97.20
50907;DHT22;36882;27.680;85.304;2022-07-29T15:21:45;26.30;97.40
50907;DHT22;36882;27.680;85.304;2022-07-29T15:24:16;26.30;97.20
50907;DHT22;36882;27.680;85.304;2022-07-29T15:26:48;26.30;97.00
50907;DHT22;36882;27.680;85.304;2022-07-29T15:29:22;26.30;97.10
50907;DHT22;36882;27.680;85.304;2022-07-29T15:31:53;26.30;97.30
50907;DHT22;36882;27.680;85.304;2022-07-29T15:34:26;26.40;97.30
50907;DHT22;36882;27.680;85.304;2022-07-29T15:36:56;26.30;97.30
50907;DHT22;36882;27.680;85.304;2022-07-29T15:39:27;26.40;97.20
50907;DHT22;36882;27.680;85.304;2022-07-29T15:41:57;26.30;97.20
50907;DHT22;36882;27.680;85.304;2022-07-29T15:44:32;26.30;97.40
50907;DHT22;36882;27.680;85.304;2022-07-29T15:47:02;26.30;97.70
50907;DHT22;36882;27.680;85.304;2022-07-29T15:49:37;26.30;98.00
50907;DHT22;36882;27.680;85.304;2022-07-29T15:52:19;26.30;98.20
50907;DHT22;36882;27.680;85.304;2022-07-29T15:54:54;26.30;98.30
50907;DHT22;36882;27.680;85.304;2022-07-29T15:57:25;26.30;98.30
50907;DHT22;36882;27.680;85.304;2022-07-29T15:59:55;26.30;98.30
50907;DHT22;36882;27.680;85.304;2022-07-29T16:02:26;26.30;98.30
50907;DHT22;36882;27.680;85.304;2022-07-29T16:04:57;26.20;98.10
50907;DHT22;36882;27.680;85.304;2022-07-29T16:07:27;26.20;98.20
50907;DHT22;36882;27.680;85.304;2022-07-29T16:09:59;26.10;98.30
50907;DHT22;36882;27.680;85.304;2022-07-29T16:12:29;26.10;98.20
50907;DHT22;36882;27.680;85.304;2022-07-29T16:15:00;26.10;98.30